Time;durP1;ratioP1;P1;durP2;ratioP2;P2;SDS_P1;SDS_P2;PMS_P1;PMS_P2;Temp;Humidity;BMP_temperature;BMP_pressure;BME280_temperature;BME280_humidity;BME280_pressure;Samples;Min_cycle;Max_cycle;Signal;HPM_P1;HPM_P2
2023/10/20 00:01:37;;;;;;;14.23;10.15;;;;;;;;;;4953017;28;20034;-85
2023/10/20 00:04:24;;;;;;;12.73;8.55;;;;;;;;;;4946897;29;20038;-84
2023/10/20 00:07:09;;;;;;;14.52;8.68;;;;;;;;;;4941659;28;20031;-84
2023/10/20 00:09:57;;;;;;;12.98;8.70;;;;;;;;;;4953434;28;20031;-85
2023/10/20 00:12:43;;;;;;;14.88;9.30;;;;;;;;;;4954618;29;20027;-85
2023/10/20 00:15:28;;;;;;;18.15;10.32;;;;;;;;;;4963395;28;20034;-85
2023/10/20 00:18:14;;;;;;;13.88;10.25;;;;;;;;;;4949645;29;20054;-83
2023/10/20 00:20:59;;;;;;;12.68;9.27;;;;;;;;;;4937761;29;20384;-83
2023/10/20 00:23:44;;;;;;;11.43;8.13;;;;;;;;;;4953692;29;20023;-83
2023/10/20 00:26:30;;;;;;;16.38;10.52;;;;;;;;;;4951515;28;20109;-82
2023/10/20 00:29:15;;;;;;;13.35;8.82;;;;;;;;;;4949519;28;20035;-85
2023/10/20 00:32:00;;;;;;;12.63;9.13;;;;;;;;;;4953927;28;20492;-84
2023/10/20 00:34:46;;;;;;;13.45;9.50;;;;;;;;;;4955636;28;20035;-83
2023/10/20 00:37:31;;;;;;;12.23;9.60;;;;;;;;;;4948020;28;20089;-83
2023/10/20 00:40:16;;;;;;;11.15;8.75;;;;;;;;;;4953052;28;20023;-84
2023/10/20 00:43:01;;;;;;;11.55;8.50;;;;;;;;;;4952849;28;20034;-84
2023/10/20 00:45:47;;;;;;;11.63;8.85;;;;;;;;;;4949655;29;20117;-85
2023/10/20 00:48:34;;;;;;;12.27;9.23;;;;;;;;;;4969406;28;20066;-84
2023/10/20 00:51:19;;;;;;;13.73;9.70;;;;;;;;;;4949999;29;20132;-85
2023/10/20 00:54:04;;;;;;;14.65;9.55;;;;;;;;;;4953735;29;20477;-84
2023/10/20 00:56:51;;;;;;;12.98;9.35;;;;;;;;;;4952360;28;20042;-85
2023/10/20 00:59:36;;;;;;;13.25;9.65;;;;;;;;;;4964575;28;20027;-86
2023/10/20 01:02:21;;;;;;;12.70;8.90;;;;;;;;;;4953670;28;20066;-86
2023/10/20 01:05:06;;;;;;;13.63;10.27;;;;;;;;;;4950730;29;20164;-86
2023/10/20 01:07:52;;;;;;;11.68;9.48;;;;;;;;;;4949599;28;20039;-86
2023/10/20 01:10:37;;;;;;;14.07;9.57;;;;;;;;;;4965735;28;20034;-86
2023/10/20 01:13:23;;;;;;;13.05;9.27;;;;;;;;;;4949966;28;20031;-86
2023/10/20 01:16:08;;;;;;;14.20;10.48;;;;;;;;;;4958470;28;20023;-86
2023/10/20 01:18:55;;;;;;;13.98;9.65;;;;;;;;;;4952170;28;20143;-84
2023/10/20 01:21:40;;;;;;;15.75;10.48;;;;;;;;;;4960762;28;20039;-84
2023/10/20 01:24:26;;;;;;;14.40;9.65;;;;;;;;;;4953004;28;20118;-83
2023/10/20 01:27:11;;;;;;;14.43;9.93;;;;;;;;;;4963997;28;20093;-83
2023/10/20 01:29:57;;;;;;;13.95;9.25;;;;;;;;;;4954502;28;20030;-82
2023/10/20 01:32:42;;;;;;;15.20;10.20;;;;;;;;;;4954051;29;20031;-83
2023/10/20 01:35:27;;;;;;;13.80;10.27;;;;;;;;;;4949891;28;20640;-82
2023/10/20 01:38:12;;;;;;;12.60;9.48;;;;;;;;;;4951674;28;20098;-82
2023/10/20 01:40:58;;;;;;;12.82;9.52;;;;;;;;;;4951015;28;20023;-84
2023/10/20 01:43:43;;;;;;;13.85;9.10;;;;;;;;;;4959371;28;20023;-82
2023/10/20 01:46:28;;;;;;;16.05;10.85;;;;;;;;;;4963165;28;20061;-82
2023/10/20 01:49:13;;;;;;;16.92;10.63;;;;;;;;;;4949426;28;20070;-83
2023/10/20 01:51:59;;;;;;;12.48;8.77;;;;;;;;;;4950119;28;20023;-84
2023/10/20 01:54:44;;;;;;;10.50;7.75;;;;;;;;;;4951541;28;20023;-84
2023/10/20 01:57:30;;;;;;;13.90;8.95;;;;;;;;;;4951618;28;20027;-83
2023/10/20 02:00:16;;;;;;;12.57;9.27;;;;;;;;;;4952793;28;20031;-84
2023/10/20 02:03:02;;;;;;;14.52;9.10;;;;;;;;;;4952167;29;20042;-83
2023/10/20 02:05:47;;;;;;;13.52;9.02;;;;;;;;;;4950304;28;20023;-84
2023/10/20 02:08:32;;;;;;;13.90;9.57;;;;;;;;;;4954043;28;20031;-84
2023/10/20 02:11:17;;;;;;;12.07;8.80;;;;;;;;;;4959237;28;20085;-84
2023/10/20 02:14:06;;;;;;;14.30;10.43;;;;;;;;;;4951278;28;20093;-83
2023/10/20 02:16:51;;;;;;;11.40;8.77;;;;;;;;;;4956969;28;20377;-85
2023/10/20 02:19:36;;;;;;;12.13;7.82;;;;;;;;;;4957140;28;20264;-85
2023/10/20 02:22:22;;;;;;;12.60;8.52;;;;;;;;;;4960863;28;20046;-85
2023/10/20 02:25:09;;;;;;;13.18;8.48;;;;;;;;;;4948656;29;20019;-85
2023/10/20 02:27:54;;;;;;;14.60;9.18;;;;;;;;;;4953022;28;20050;-84
2023/10/20 02:30:40;;;;;;;10.23;7.45;;;;;;;;;;4949719;28;20117;-84
2023/10/20 02:33:25;;;;;;;11.40;8.07;;;;;;;;;;4950400;28;20038;-83
2023/10/20 02:36:21;;;;;;;9.82;7.18;;;;;;;;;;4949326;28;20035;-85
2023/10/20 02:39:06;;;;;;;10.52;7.63;;;;;;;;;;4956498;28;20094;-84
2023/10/20 02:41:51;;;;;;;9.68;7.25;;;;;;;;;;4949012;28;20043;-85
2023/10/20 02:44:37;;;;;;;12.85;8.05;;;;;;;;;;4953655;28;20070;-83
2023/10/20 02:47:22;;;;;;;10.23;7.30;;;;;;;;;;4946216;29;20038;-83
2023/10/20 02:50:08;;;;;;;13.02;9.10;;;;;;;;;;4949218;29;20019;-84
2023/10/20 02:52:53;;;;;;;13.43;7.10;;;;;;;;;;4949468;29;20027;-84
2023/10/20 02:55:38;;;;;;;10.40;7.40;;;;;;;;;;4958043;28;20035;-87
2023/10/20 02:58:24;;;;;;;10.93;7.63;;;;;;;;;;4952247;28;20077;-82
2023/10/20 03:01:13;;;;;;;9.75;7.18;;;;;;;;;;4950010;29;20110;-83
2023/10/20 03:03:58;;;;;;;10.73;7.28;;;;;;;;;;4952451;28;20090;-84
2023/10/20 03:06:44;;;;;;;11.18;7.55;;;;;;;;;;4944768;28;20779;-84
2023/10/20 03:09:29;;;;;;;14.73;7.10;;;;;;;;;;4945559;29;20101;-84
2023/10/20 03:12:14;;;;;;;10.68;7.65;;;;;;;;;;4946389;28;20433;-83
2023/10/20 03:15:00;;;;;;;9.93;7.30;;;;;;;;;;4948406;28;20027;-83
2023/10/20 03:17:45;;;;;;;10.48;7.47;;;;;;;;;;4954448;28;20091;-84
2023/10/20 03:20:33;;;;;;;10.82;7.05;;;;;;;;;;4961971;28;20034;-84
2023/10/20 03:23:20;;;;;;;9.90;5.70;;;;;;;;;;4958414;28;20117;-84
2023/10/20 03:26:09;;;;;;;10.93;6.82;;;;;;;;;;4949598;28;20066;-83
2023/10/20 03:28:56;;;;;;;9.85;6.82;;;;;;;;;;4956629;28;20396;-84
2023/10/20 03:31:42;;;;;;;8.60;5.28;;;;;;;;;;4958990;28;20035;-84
2023/10/20 03:34:27;;;;;;;13.35;6.78;;;;;;;;;;4950755;29;20136;-84
2023/10/20 03:37:13;;;;;;;9.30;6.40;;;;;;;;;;4958581;28;20117;-82
2023/10/20 03:39:58;;;;;;;8.23;5.15;;;;;;;;;;4966466;28;20069;-84
2023/10/20 03:42:44;;;;;;;8.18;5.47;;;;;;;;;;4950342;28;20026;-84
2023/10/20 03:45:29;;;;;;;10.70;5.35;;;;;;;;;;4956671;28;20027;-84
2023/10/20 03:48:19;;;;;;;8.90;5.65;;;;;;;;;;4949512;28;20027;-85
2023/10/20 03:51:07;;;;;;;9.57;5.35;;;;;;;;;;4961247;28;20027;-86
2023/10/20 03:53:55;;;;;;;9.98;5.15;;;;;;;;;;4957247;28;20073;-86
2023/10/20 03:56:41;;;;;;;7.75;4.55;;;;;;;;;;4942679;28;20217;-84
2023/10/20 03:59:26;;;;;;;8.75;4.90;;;;;;;;;;4950552;29;20058;-84
2023/10/20 04:02:11;;;;;;;7.00;4.22;;;;;;;;;;4949152;29;20399;-84
2023/10/20 04:04:57;;;;;;;6.72;4.65;;;;;;;;;;4946845;29;20039;-84
2023/10/20 04:07:42;;;;;;;9.18;5.07;;;;;;;;;;4951583;29;20620;-85
2023/10/20 04:10:27;;;;;;;11.43;4.82;;;;;;;;;;4951454;29;20034;-86
2023/10/20 04:13:12;;;;;;;9.82;4.57;;;;;;;;;;4951991;29;20114;-86
2023/10/20 04:15:58;;;;;;;7.72;4.53;;;;;;;;;;4947348;29;20031;-85
2023/10/20 04:18:43;;;;;;;8.50;4.50;;;;;;;;;;4938656;29;20095;-86
2023/10/20 04:21:29;;;;;;;8.63;4.45;;;;;;;;;;4958478;28;20023;-86
2023/10/20 04:24:14;;;;;;;6.32;4.43;;;;;;;;;;4942381;28;20030;-86
2023/10/20 04:26:59;;;;;;;8.23;4.47;;;;;;;;;;4960480;28;20035;-85
2023/10/20 04:41:50;;;;;;;7.05;4.18;;;;;;;;;;4955258;29;20051;-86
2023/10/20 04:48:26;;;;;;;9.20;5.00;;;;;;;;;;4949922;28;20549;-85
2023/10/20 04:52:05;;;;;;;8.45;5.05;;;;;;;;;;4953847;28;20031;-83
2023/10/20 04:54:23;;;;;;;6.72;4.18;;;;;;;;;;4955603;28;20028;-84
2023/10/20 05:05:52;;;;;;;8.57;5.50;;;;;;;;;;4965603;28;20085;-84
2023/10/20 05:08:37;;;;;;;12.15;5.85;;;;;;;;;;4962120;28;20085;-85
2023/10/20 05:11:22;;;;;;;11.50;5.65;;;;;;;;;;4953074;29;20454;-85
2023/10/20 05:14:08;;;;;;;8.85;4.68;;;;;;;;;;4964560;28;20019;-86
2023/10/20 05:16:55;;;;;;;9.45;5.43;;;;;;;;;;4952008;28;20485;-85
2023/10/20 05:19:41;;;;;;;10.68;5.28;;;;;;;;;;4954427;28;20039;-85
2023/10/20 05:22:27;;;;;;;12.82;6.18;;;;;;;;;;4958755;28;20058;-85
2023/10/20 05:25:13;;;;;;;9.70;5.45;;;;;;;;;;4957971;29;20247;-85
2023/10/20 05:28:00;;;;;;;8.32;5.28;;;;;;;;;;4967308;28;20057;-90
2023/10/20 05:30:45;;;;;;;11.13;6.55;;;;;;;;;;4984046;28;20019;-88
2023/10/20 05:33:30;;;;;;;8.40;5.35;;;;;;;;;;4969462;29;20024;-88
2023/10/20 05:36:16;;;;;;;10.00;5.72;;;;;;;;;;4971558;29;20054;-86
2023/10/20 05:39:01;;;;;;;8.50;5.97;;;;;;;;;;4967610;28;20025;-85
2023/10/20 05:41:47;;;;;;;8.95;5.65;;;;;;;;;;4961141;29;20071;-86
2023/10/20 05:44:33;;;;;;;9.02;4.90;;;;;;;;;;4944638;29;20067;-85
2023/10/20 05:47:18;;;;;;;9.35;5.97;;;;;;;;;;4943953;28;20035;-87
2023/10/20 05:50:06;;;;;;;9.05;6.10;;;;;;;;;;4947102;28;20053;-85
2023/10/20 05:52:52;;;;;;;9.20;5.40;;;;;;;;;;4955802;28;20035;-86
2023/10/20 05:55:38;;;;;;;11.18;6.10;;;;;;;;;;4945870;28;20059;-87
2023/10/20 05:58:23;;;;;;;9.52;5.50;;;;;;;;;;4955375;28;20066;-84
2023/10/20 06:01:11;;;;;;;12.05;6.10;;;;;;;;;;4959933;29;20051;-89
2023/10/20 06:03:58;;;;;;;8.60;5.50;;;;;;;;;;4955246;28;20032;-88
2023/10/20 06:06:43;;;;;;;9.02;5.95;;;;;;;;;;4946245;28;20023;-89
2023/10/20 06:09:29;;;;;;;8.98;5.22;;;;;;;;;;4940984;28;20677;-87
2023/10/20 06:12:14;;;;;;;8.43;5.20;;;;;;;;;;4954007;28;20035;-88
2023/10/20 06:14:59;;;;;;;7.43;5.03;;;;;;;;;;4943661;28;20033;-89
2023/10/20 06:17:44;;;;;;;10.55;5.22;;;;;;;;;;4949369;28;20058;-86
2023/10/20 06:20:30;;;;;;;9.43;5.10;;;;;;;;;;4949969;28;20035;-89
2023/10/20 06:23:16;;;;;;;7.35;5.32;;;;;;;;;;4957704;28;20035;-88
2023/10/20 06:26:01;;;;;;;11.48;6.35;;;;;;;;;;4951868;28;20235;-85
2023/10/20 06:28:46;;;;;;;8.43;5.60;;;;;;;;;;4952356;28;20023;-88
2023/10/20 06:34:23;;;;;;;10.95;5.90;;;;;;;;;;4948951;28;20035;-85
2023/10/20 06:37:09;;;;;;;9.23;5.95;;;;;;;;;;4940536;28;21072;-85
2023/10/20 06:39:54;;;;;;;9.48;6.03;;;;;;;;;;4957668;28;20034;-84
2023/10/20 06:42:39;;;;;;;10.40;6.20;;;;;;;;;;4955568;28;20058;-81
2023/10/20 06:45:24;;;;;;;11.10;6.35;;;;;;;;;;4956017;28;20031;-82
2023/10/20 06:48:10;;;;;;;8.52;6.22;;;;;;;;;;4951153;28;20065;-83
2023/10/20 06:50:56;;;;;;;10.27;6.43;;;;;;;;;;4956210;28;20027;-83
2023/10/20 06:53:41;;;;;;;8.55;5.60;;;;;;;;;;4958362;28;20031;-85
2023/10/20 06:56:27;;;;;;;11.50;6.22;;;;;;;;;;4951865;28;20065;-85
2023/10/20 06:59:15;;;;;;;8.68;5.90;;;;;;;;;;4952242;28;20061;-87
2023/10/20 07:02:00;;;;;;;16.23;6.13;;;;;;;;;;4939893;28;20058;-87
2023/10/20 07:04:46;;;;;;;8.98;5.50;;;;;;;;;;4957376;28;21434;-89
2023/10/20 07:07:31;;;;;;;9.10;5.80;;;;;;;;;;4955760;28;20050;-88
2023/10/20 07:10:17;;;;;;;9.45;6.78;;;;;;;;;;4962255;28;20027;-86
2023/10/20 07:13:06;;;;;;;10.23;6.45;;;;;;;;;;4955848;28;20110;-84
2023/10/20 07:15:56;;;;;;;9.35;5.38;;;;;;;;;;4957205;28;20033;-86
2023/10/20 07:18:41;;;;;;;9.70;6.00;;;;;;;;;;4955865;28;20059;-83
2023/10/20 07:21:27;;;;;;;8.43;5.78;;;;;;;;;;4952301;28;20093;-83
2023/10/20 07:24:12;;;;;;;7.85;5.32;;;;;;;;;;4953357;28;20042;-83
2023/10/20 07:26:58;;;;;;;8.32;6.05;;;;;;;;;;4957889;28;20031;-82
2023/10/20 07:29:43;;;;;;;10.20;5.22;;;;;;;;;;4949958;28;20446;-82
2023/10/20 07:32:28;;;;;;;9.38;5.97;;;;;;;;;;4952334;28;20039;-84
2023/10/20 07:35:15;;;;;;;10.23;6.03;;;;;;;;;;4950861;28;20026;-85
2023/10/20 07:38:00;;;;;;;7.25;5.32;;;;;;;;;;4951916;28;20032;-86
2023/10/20 07:40:45;;;;;;;12.93;6.72;;;;;;;;;;4952910;28;20556;-85
2023/10/20 07:43:30;;;;;;;6.95;4.82;;;;;;;;;;4954206;28;20031;-84
2023/10/20 07:46:16;;;;;;;9.55;5.22;;;;;;;;;;4948581;28;20544;-85
2023/10/20 07:49:03;;;;;;;8.18;5.22;;;;;;;;;;4949625;28;20135;-87
2023/10/20 07:51:48;;;;;;;8.57;5.57;;;;;;;;;;4958541;28;20047;-87
2023/10/20 07:54:33;;;;;;;8.15;5.20;;;;;;;;;;4946706;28;20461;-84
2023/10/20 07:57:20;;;;;;;9.02;6.03;;;;;;;;;;4957978;28;20027;-84
2023/10/20 08:00:05;;;;;;;10.45;6.20;;;;;;;;;;4956537;28;20019;-81
2023/10/20 08:02:51;;;;;;;8.50;5.05;;;;;;;;;;4951667;28;20047;-86
2023/10/20 08:05:36;;;;;;;8.65;5.78;;;;;;;;;;4961351;28;20027;-84
2023/10/20 08:08:22;;;;;;;8.18;5.70;;;;;;;;;;4965228;28;20024;-85
2023/10/20 08:11:07;;;;;;;10.13;5.45;;;;;;;;;;4956670;28;20094;-85
2023/10/20 08:13:53;;;;;;;12.38;6.18;;;;;;;;;;4955233;28;20077;-85
2023/10/20 08:16:39;;;;;;;9.30;6.07;;;;;;;;;;4968467;28;20034;-85
2023/10/20 08:19:25;;;;;;;10.45;7.00;;;;;;;;;;4950750;28;20047;-84
2023/10/20 08:22:10;;;;;;;10.68;7.18;;;;;;;;;;4951433;28;20501;-84
2023/10/20 08:24:55;;;;;;;12.07;6.65;;;;;;;;;;4950255;28;20035;-85
2023/10/20 08:27:40;;;;;;;10.52;6.38;;;;;;;;;;4956722;28;20473;-85
2023/10/20 08:30:26;;;;;;;11.65;7.32;;;;;;;;;;4951794;28;20478;-86
2023/10/20 08:33:11;;;;;;;10.38;8.10;;;;;;;;;;4949335;28;20118;-83
2023/10/20 08:35:57;;;;;;;12.35;7.57;;;;;;;;;;4948026;28;20134;-85
2023/10/20 08:38:43;;;;;;;10.77;7.25;;;;;;;;;;4951637;28;20733;-86
2023/10/20 08:41:28;;;;;;;12.55;7.50;;;;;;;;;;4935865;28;20039;-86
2023/10/20 08:44:14;;;;;;;11.80;7.68;;;;;;;;;;4955534;28;20067;-86
2023/10/20 08:46:59;;;;;;;11.77;7.68;;;;;;;;;;4951421;28;20038;-86
2023/10/20 08:49:46;;;;;;;13.75;9.80;;;;;;;;;;4960865;28;20094;-85
2023/10/20 08:52:31;;;;;;;13.98;7.85;;;;;;;;;;4953054;28;20057;-87
2023/10/20 08:55:16;;;;;;;12.70;9.25;;;;;;;;;;4935475;29;20030;-85
2023/10/20 08:58:03;;;;;;;12.25;8.63;;;;;;;;;;4953640;28;20042;-86
2023/10/20 09:00:48;;;;;;;9.82;7.55;;;;;;;;;;4949815;28;20549;-86
2023/10/20 09:03:44;;;;;;;12.40;8.40;;;;;;;;;;4963157;28;20654;-83
2023/10/20 09:06:30;;;;;;;16.23;9.90;;;;;;;;;;4964852;28;20077;-86
2023/10/20 09:09:15;;;;;;;13.35;9.35;;;;;;;;;;4946435;29;20067;-83
2023/10/20 09:12:00;;;;;;;12.55;9.25;;;;;;;;;;4955179;28;20030;-86
2023/10/20 09:14:46;;;;;;;14.95;8.93;;;;;;;;;;4951649;28;20140;-86
2023/10/20 09:17:33;;;;;;;13.70;9.48;;;;;;;;;;4950606;28;20114;-86
2023/10/20 09:20:19;;;;;;;12.70;9.00;;;;;;;;;;4953913;28;20034;-86
2023/10/20 09:23:08;;;;;;;15.15;9.95;;;;;;;;;;4952540;28;20026;-88
2023/10/20 09:25:54;;;;;;;14.95;9.38;;;;;;;;;;4937844;29;20079;-87
2023/10/20 09:28:46;;;;;;;11.93;8.18;;;;;;;;;;4959484;28;20118;-87
2023/10/20 09:31:51;;;;;;;15.00;10.82;;;;;;;;;;4952050;28;20032;-89
2023/10/20 09:34:37;;;;;;;13.38;9.43;;;;;;;;;;4962318;28;20035;-87
2023/10/20 09:37:23;;;;;;;18.25;11.82;;;;;;;;;;4947371;28;20432;-85
2023/10/20 09:40:09;;;;;;;13.93;9.70;;;;;;;;;;4954983;28;20379;-86
2023/10/20 09:42:54;;;;;;;12.48;9.63;;;;;;;;;;4951777;28;20081;-87
2023/10/20 09:45:42;;;;;;;13.95;9.98;;;;;;;;;;4951797;28;20093;-86
2023/10/20 09:48:27;;;;;;;14.35;9.95;;;;;;;;;;4966521;28;20037;-87
2023/10/20 09:51:15;;;;;;;14.55;9.73;;;;;;;;;;4950524;28;20031;-85
2023/10/20 09:54:00;;;;;;;14.55;10.30;;;;;;;;;;4949978;28;20035;-87
2023/10/20 09:56:46;;;;;;;13.32;9.60;;;;;;;;;;4953821;28;20113;-80
2023/10/20 09:59:31;;;;;;;12.70;8.65;;;;;;;;;;4951084;28;20082;-76
2023/10/20 10:02:25;;;;;;;12.00;8.32;;;;;;;;;;4950801;28;20059;-76
2023/10/20 10:05:23;;;;;;;12.23;8.13;;;;;;;;;;4944661;28;20054;-78
2023/10/20 10:08:08;;;;;;;10.15;7.45;;;;;;;;;;4948813;28;20023;-78
2023/10/20 10:10:54;;;;;;;12.65;9.32;;;;;;;;;;4950798;28;20118;-78
2023/10/20 10:13:39;;;;;;;13.45;8.82;;;;;;;;;;4947894;28;20385;-79
2023/10/20 10:16:25;;;;;;;11.60;7.72;;;;;;;;;;4946504;28;20042;-78
2023/10/20 10:19:13;;;;;;;13.15;8.40;;;;;;;;;;4952713;28;20101;-80
2023/10/20 10:22:00;;;;;;;13.75;8.18;;;;;;;;;;4951203;28;20031;-83
2023/10/20 10:24:54;;;;;;;11.93;8.10;;;;;;;;;;4959618;28;20046;-84
2023/10/20 10:27:39;;;;;;;10.10;6.43;;;;;;;;;;4961236;28;20366;-83
2023/10/20 10:30:27;;;;;;;13.38;7.78;;;;;;;;;;4946320;28;20063;-84
2023/10/20 10:33:13;;;;;;;12.40;7.45;;;;;;;;;;4949864;28;20784;-80
2023/10/20 10:36:07;;;;;;;11.57;7.53;;;;;;;;;;4953130;28;20042;-80
2023/10/20 10:38:52;;;;;;;9.52;6.22;;;;;;;;;;4943928;28;20047;-81
2023/10/20 10:41:37;;;;;;;8.80;5.78;;;;;;;;;;4953783;28;20061;-81
2023/10/20 10:44:22;;;;;;;10.00;5.40;;;;;;;;;;4948134;28;20528;-79
2023/10/20 10:47:18;;;;;;;10.70;4.55;;;;;;;;;;4947071;28;20042;-79
2023/10/20 10:50:03;;;;;;;8.80;5.10;;;;;;;;;;4956112;28;20038;-81
2023/10/20 10:52:48;;;;;;;5.90;3.72;;;;;;;;;;4949011;28;20035;-80
2023/10/20 10:55:37;;;;;;;5.63;3.58;;;;;;;;;;4949127;28;20781;-81
2023/10/20 10:58:23;;;;;;;5.30;3.42;;;;;;;;;;4952107;28;20030;-84
2023/10/20 11:01:09;;;;;;;3.08;2.30;;;;;;;;;;4949716;28;20034;-86
2023/10/20 11:03:54;;;;;;;4.43;2.45;;;;;;;;;;4960327;28;20034;-83
2023/10/20 11:06:39;;;;;;;3.20;1.90;;;;;;;;;;4965445;28;20042;-85
2023/10/20 11:09:27;;;;;;;3.88;1.30;;;;;;;;;;4954134;28;20031;-83
2023/10/20 11:12:13;;;;;;;3.60;1.10;;;;;;;;;;4946117;28;20039;-84
2023/10/20 11:15:03;;;;;;;5.15;1.15;;;;;;;;;;4959281;28;20459;-84
2023/10/20 11:17:49;;;;;;;0.88;0.80;;;;;;;;;;4948883;28;20047;-84
2023/10/20 11:20:37;;;;;;;1.60;1.05;;;;;;;;;;4953208;28;20065;-85
2023/10/20 11:23:29;;;;;;;1.95;0.75;;;;;;;;;;4945898;28;20122;-85
2023/10/20 11:26:17;;;;;;;1.23;0.93;;;;;;;;;;4952428;28;20107;-86
2023/10/20 11:29:03;;;;;;;0.50;0.50;;;;;;;;;;4950981;28;20027;-85
2023/10/20 11:31:49;;;;;;;3.00;0.98;;;;;;;;;;4951676;28;20105;-85
2023/10/20 11:34:37;;;;;;;2.30;0.80;;;;;;;;;;4949071;28;20485;-85
2023/10/20 11:37:22;;;;;;;0.63;0.63;;;;;;;;;;4958099;28;20035;-87
2023/10/20 11:40:08;;;;;;;4.70;0.80;;;;;;;;;;4956955;28;20035;-92
2023/10/20 11:42:54;;;;;;;1.85;0.68;;;;;;;;;;4966636;28;20059;-89
2023/10/20 11:45:39;;;;;;;0.63;0.63;;;;;;;;;;4947383;28;20573;-92
2023/10/20 11:48:24;;;;;;;0.93;0.70;;;;;;;;;;4954380;28;20042;-87
2023/10/20 11:51:09;;;;;;;0.70;0.60;;;;;;;;;;4965039;28;20061;-87
2023/10/20 11:53:55;;;;;;;0.93;0.60;;;;;;;;;;4964985;28;20026;-85
2023/10/20 11:56:41;;;;;;;1.70;1.10;;;;;;;;;;4963589;28;20029;-83
2023/10/20 11:59:26;;;;;;;0.85;0.80;;;;;;;;;;4953764;28;20557;-89
2023/10/20 12:02:11;;;;;;;1.13;0.65;;;;;;;;;;4962422;28;20468;-94
2023/10/20 12:04:56;;;;;;;0.70;0.70;;;;;;;;;;4960030;28;20039;-89
2023/10/20 12:07:42;;;;;;;5.35;0.85;;;;;;;;;;4961780;28;20124;-89
2023/10/20 12:10:28;;;;;;;0.60;0.60;;;;;;;;;;4960798;28;20125;-89
2023/10/20 12:13:13;;;;;;;0.70;0.70;;;;;;;;;;4951967;28;20039;-87
2023/10/20 12:15:58;;;;;;;1.05;0.82;;;;;;;;;;4967598;28;20035;-89
2023/10/20 12:18:43;;;;;;;0.55;0.50;;;;;;;;;;4960238;28;20055;-86
2023/10/20 12:21:29;;;;;;;1.05;0.52;;;;;;;;;;4954449;28;20027;-88
2023/10/20 12:24:14;;;;;;;0.60;0.60;;;;;;;;;;4975255;28;20043;-80
2023/10/20 12:27:00;;;;;;;0.55;0.55;;;;;;;;;;4961851;28;20039;-91
2023/10/20 12:29:45;;;;;;;0.70;0.70;;;;;;;;;;4957609;28;20041;-88
2023/10/20 12:32:31;;;;;;;1.13;0.80;;;;;;;;;;4973596;28;20024;-90
2023/10/20 12:35:17;;;;;;;0.52;0.52;;;;;;;;;;4964717;28;20023;-90
2023/10/20 12:38:02;;;;;;;1.45;0.70;;;;;;;;;;4957223;28;20046;-89
2023/10/20 12:40:49;;;;;;;1.00;0.70;;;;;;;;;;4966642;28;20034;-91
2023/10/20 12:43:34;;;;;;;0.60;0.60;;;;;;;;;;4972590;28;20031;-90
2023/10/20 12:46:19;;;;;;;3.53;0.50;;;;;;;;;;4965304;28;20034;-91
2023/10/20 12:49:06;;;;;;;0.60;0.60;;;;;;;;;;4967962;28;20043;-89
2023/10/20 12:51:54;;;;;;;0.63;0.60;;;;;;;;;;4976105;28;20018;-94
2023/10/20 12:58:24;;;;;;;2.53;0.68;;;;;;;;;;4823391;29;20045;-87
2023/10/20 13:04:31;;;;;;;3.58;0.80;;;;;;;;;;4830085;29;20050;-87
2023/10/20 13:07:16;;;;;;;0.60;0.60;;;;;;;;;;4837982;29;20031;-88
2023/10/20 13:10:03;;;;;;;1.30;0.50;;;;;;;;;;4937609;29;20053;-88
2023/10/20 13:16:18;;;;;;;;;;;;;;;;;;4889627;29;20039;-88
2023/10/20 13:29:37;;;;;;;0.90;0.65;;;;;;;;;;4922478;29;20099;-94
2023/10/20 13:33:07;;;;;;;1.30;0.60;;;;;;;;;;4905558;29;20091;-91
2023/10/20 13:36:22;;;;;;;2.95;0.77;;;;;;;;;;4894362;29;20290;-91
2023/10/20 13:39:09;;;;;;;0.60;0.60;;;;;;;;;;4848414;29;20190;-88
2023/10/20 13:41:54;;;;;;;2.85;0.60;;;;;;;;;;4935447;29;20058;-88
2023/10/20 13:45:04;;;;;;;0.85;0.60;;;;;;;;;;4935302;29;20394;-88
2023/10/20 13:47:54;;;;;;;0.85;0.63;;;;;;;;;;4934278;28;20023;-87
2023/10/20 13:50:39;;;;;;;0.85;0.60;;;;;;;;;;4935282;28;20073;-88
2023/10/20 13:53:25;;;;;;;0.80;0.55;;;;;;;;;;4930424;28;20079;-87
2023/10/20 13:56:10;;;;;;;4.55;0.70;;;;;;;;;;4918412;28;20039;-87
2023/10/20 13:58:55;;;;;;;0.52;0.50;;;;;;;;;;4932794;29;20036;-88
2023/10/20 14:01:41;;;;;;;0.88;0.63;;;;;;;;;;4918149;29;20038;-86
2023/10/20 14:04:26;;;;;;;1.83;0.70;;;;;;;;;;4930066;28;20415;-85
2023/10/20 14:07:12;;;;;;;1.27;0.60;;;;;;;;;;4939879;28;20036;-87
2023/10/20 14:09:57;;;;;;;0.65;0.60;;;;;;;;;;4933637;28;20169;-89
2023/10/20 14:12:43;;;;;;;1.20;0.80;;;;;;;;;;4928848;29;20023;-84
2023/10/20 14:15:28;;;;;;;1.38;0.75;;;;;;;;;;4929898;28;20050;-85
2023/10/20 14:18:13;;;;;;;0.65;0.65;;;;;;;;;;4931414;29;20102;-87
2023/10/20 14:20:59;;;;;;;0.75;0.60;;;;;;;;;;4930593;28;20493;-84
2023/10/20 14:23:44;;;;;;;0.82;0.60;;;;;;;;;;4927882;29;20058;-91
2023/10/20 14:26:30;;;;;;;5.95;0.80;;;;;;;;;;4915463;28;20039;-90
2023/10/20 14:29:17;;;;;;;3.85;0.80;;;;;;;;;;4943230;28;20042;-84
2023/10/20 14:32:04;;;;;;;1.10;1.00;;;;;;;;;;4950340;28;20023;-86
2023/10/20 14:34:49;;;;;;;8.25;1.08;;;;;;;;;;4939828;29;20035;-87
2023/10/20 14:37:35;;;;;;;6.88;1.70;;;;;;;;;;4945067;29;20034;-86
2023/10/20 14:40:20;;;;;;;1.23;0.88;;;;;;;;;;4935543;28;20034;-90
2023/10/20 16:26:24;;;;;;;1.73;1.05;;;;;;;;;;6017016;23;20050;-85
2023/10/20 16:29:09;;;;;;;1.98;1.27;;;;;;;;;;4946483;28;20118;-85
2023/10/20 16:31:55;;;;;;;4.57;1.13;;;;;;;;;;4936366;28;20482;-86
2023/10/20 16:34:42;;;;;;;3.50;1.20;;;;;;;;;;4938795;28;20117;-83
2023/10/20 16:44:56;;;;;;;;;;;;;;;;;;;;;
2023/10/20 16:58:52;;;;;;;3.08;1.58;;;;;;;;;;4769070;30;20042;-90
2023/10/20 17:47:46;;;;;;;6.97;3.25;;;;;;;;;;4834850;29;20029;-80
2023/10/20 17:50:39;;;;;;;4.95;2.15;;;;;;;;;;4852597;29;20028;-82
2023/10/20 17:53:28;;;;;;;5.10;2.45;;;;;;;;;;4950863;23;20121;-84
2023/10/20 17:56:13;;;;;;;5.60;2.25;;;;;;;;;;4940422;29;20051;-86
2023/10/20 17:58:58;;;;;;;6.00;2.13;;;;;;;;;;4935574;29;20494;-86
2023/10/20 18:01:44;;;;;;;5.85;2.30;;;;;;;;;;4934766;29;20047;-84
2023/10/20 18:04:29;;;;;;;2.42;1.60;;;;;;;;;;4939601;28;20038;-84
2023/10/20 18:07:15;;;;;;;4.00;2.40;;;;;;;;;;4949102;29;20031;-83
2023/10/20 18:10:00;;;;;;;7.82;4.18;;;;;;;;;;4940380;28;20031;-84
2023/10/20 18:12:46;;;;;;;4.25;2.63;;;;;;;;;;4944230;28;20060;-84
2023/10/20 18:15:36;;;;;;;4.05;2.40;;;;;;;;;;4951185;28;20035;-84
2023/10/20 18:18:21;;;;;;;6.28;2.83;;;;;;;;;;4947580;29;20039;-83
2023/10/20 18:21:06;;;;;;;4.50;2.00;;;;;;;;;;4941252;28;20023;-84
2023/10/20 18:23:53;;;;;;;3.28;1.70;;;;;;;;;;4949698;28;20031;-83
2023/10/20 18:26:38;;;;;;;4.47;2.03;;;;;;;;;;4951656;28;20026;-85
2023/10/20 18:29:23;;;;;;;2.15;1.45;;;;;;;;;;4942164;28;20067;-84
2023/10/20 18:32:09;;;;;;;4.82;2.22;;;;;;;;;;4946431;28;20143;-84
2023/10/20 18:34:54;;;;;;;2.83;1.50;;;;;;;;;;4950617;28;20036;-82
2023/10/20 18:37:40;;;;;;;4.43;1.90;;;;;;;;;;4930641;29;20494;-83
2023/10/20 18:40:25;;;;;;;3.33;1.70;;;;;;;;;;4936621;28;20035;-82
2023/10/20 18:43:10;;;;;;;2.92;1.88;;;;;;;;;;4943363;28;20031;-82
2023/10/20 18:45:56;;;;;;;4.35;1.98;;;;;;;;;;4950916;28;20038;-84
2023/10/20 18:48:41;;;;;;;3.08;1.92;;;;;;;;;;4946547;28;20038;-83
2023/10/20 18:51:28;;;;;;;2.97;1.77;;;;;;;;;;4928580;29;20097;-83
2023/10/20 18:54:13;;;;;;;3.60;2.50;;;;;;;;;;4921969;28;20050;-82
2023/10/20 18:56:58;;;;;;;2.47;1.83;;;;;;;;;;4931260;29;20031;-84
2023/10/20 18:59:44;;;;;;;5.20;1.90;;;;;;;;;;4941606;28;20023;-83
2023/10/20 19:02:29;;;;;;;3.72;2.10;;;;;;;;;;4938658;28;20027;-83
2023/10/20 19:05:15;;;;;;;5.55;2.40;;;;;;;;;;4941266;28;20034;-83
2023/10/20 19:08:00;;;;;;;4.57;1.92;;;;;;;;;;4958409;28;20023;-84
2023/10/20 19:10:45;;;;;;;4.97;2.45;;;;;;;;;;4942063;28;20036;-83
2023/10/20 19:13:31;;;;;;;3.90;2.28;;;;;;;;;;4934380;28;20035;-84
2023/10/20 19:16:17;;;;;;;2.83;1.70;;;;;;;;;;4955460;28;20022;-84
2023/10/20 19:19:03;;;;;;;5.03;2.05;;;;;;;;;;4928625;29;20557;-84
2023/10/20 19:21:49;;;;;;;10.48;3.17;;;;;;;;;;4931246;28;20030;-84
2023/10/20 19:24:34;;;;;;;4.40;2.40;;;;;;;;;;4940394;28;20086;-84
2023/10/20 19:27:19;;;;;;;5.32;2.30;;;;;;;;;;4943772;29;20110;-84
2023/10/20 19:30:05;;;;;;;4.82;2.55;;;;;;;;;;4936438;29;20070;-83
2023/10/20 19:32:51;;;;;;;3.83;2.10;;;;;;;;;;4949850;28;20027;-82
2023/10/20 19:35:36;;;;;;;2.67;1.80;;;;;;;;;;4930868;29;20035;-83
2023/10/20 19:38:23;;;;;;;4.97;2.30;;;;;;;;;;4938007;28;20163;-82
2023/10/20 19:41:11;;;;;;;4.25;2.15;;;;;;;;;;4931947;29;20030;-83
2023/10/20 19:43:57;;;;;;;5.90;3.22;;;;;;;;;;4933135;29;20035;-83
2023/10/20 19:46:42;;;;;;;3.55;2.15;;;;;;;;;;4942869;28;20041;-82
2023/10/20 19:49:30;;;;;;;3.90;1.80;;;;;;;;;;4942749;28;20059;-82
2023/10/20 19:52:15;;;;;;;5.15;2.95;;;;;;;;;;4939943;29;20122;-83
2023/10/20 19:55:00;;;;;;;5.45;2.80;;;;;;;;;;4943011;29;20043;-82
2023/10/20 19:57:47;;;;;;;4.55;2.08;;;;;;;;;;4931906;28;20027;-85
2023/10/20 20:00:32;;;;;;;2.58;1.77;;;;;;;;;;4961840;28;20058;-85
2023/10/20 20:03:17;;;;;;;3.22;2.13;;;;;;;;;;4931749;29;20094;-84
2023/10/20 20:06:15;;;;;;;2.80;1.75;;;;;;;;;;4941854;28;20082;-84
2023/10/20 20:09:00;;;;;;;3.95;2.10;;;;;;;;;;4942198;29;20086;-84